sensor_id;sensor_type;location;lat;lon;timestamp;P1;durP1;ratioP1;P2;durP2;ratioP2
26391;SDS011;14572;43.120;1.178;2023-05-14T00:01:26;5.60;;;3.00;;
26391;SDS011;14572;43.120;1.178;2023-05-14T00:03:53;7.60;;;2.63;;
26391;SDS011;14572;43.120;1.178;2023-05-14T00:06:20;4.60;;;3.20;;
26391;SDS011;14572;43.120;1.178;2023-05-14T00:08:50;4.90;;;2.78;;
26391;SDS011;14572;43.120;1.178;2023-05-14T00:11:17;5.20;;;2.80;;
26391;SDS011;14572;43.120;1.178;2023-05-14T00:13:45;6.32;;;3.28;;
26391;SDS011;14572;43.120;1.178;2023-05-14T00:16:12;6.88;;;2.80;;
26391;SDS011;14572;43.120;1.178;2023-05-14T00:18:39;6.75;;;3.13;;
26391;SDS011;14572;43.120;1.178;2023-05-14T00:21:06;7.25;;;2.92;;
26391;SDS011;14572;43.120;1.178;2023-05-14T00:23:33;5.40;;;2.78;;
26391;SDS011;14572;43.120;1.178;2023-05-14T00:26:03;9.80;;;3.05;;
26391;SDS011;14572;43.120;1.178;2023-05-14T00:28:30;4.40;;;3.20;;
26391;SDS011;14572;43.120;1.178;2023-05-14T00:30:57;4.03;;;2.55;;
26391;SDS011;14572;43.120;1.178;2023-05-14T00:33:24;5.63;;;3.03;;
26391;SDS011;14572;43.120;1.178;2023-05-14T00:35:51;7.75;;;3.17;;
26391;SDS011;14572;43.120;1.178;2023-05-14T00:38:19;3.47;;;2.88;;
26391;SDS011;14572;43.120;1.178;2023-05-14T00:40:48;5.75;;;2.92;;
26391;SDS011;14572;43.120;1.178;2023-05-14T00:43:18;5.72;;;2.92;;
26391;SDS011;14572;43.120;1.178;2023-05-14T00:45:45;4.88;;;3.15;;
26391;SDS011;14572;43.120;1.178;2023-05-14T00:48:13;5.88;;;2.80;;
26391;SDS011;14572;43.120;1.178;2023-05-14T00:50:41;6.10;;;3.55;;
26391;SDS011;14572;43.120;1.178;2023-05-14T00:53:08;3.95;;;3.17;;
26391;SDS011;14572;43.120;1.178;2023-05-14T00:55:35;4.88;;;3.28;;
26391;SDS011;14572;43.120;1.178;2023-05-14T00:58:03;6.15;;;2.90;;
26391;SDS011;14572;43.120;1.178;2023-05-14T01:00:35;5.10;;;3.20;;
26391;SDS011;14572;43.120;1.178;2023-05-14T01:03:02;5.68;;;3.00;;
26391;SDS011;14572;43.120;1.178;2023-05-14T01:05:31;6.18;;;2.90;;
26391;SDS011;14572;43.120;1.178;2023-05-14T01:08:04;5.18;;;2.90;;
26391;SDS011;14572;43.120;1.178;2023-05-14T01:10:36;7.45;;;2.97;;
26391;SDS011;14572;43.120;1.178;2023-05-14T01:13:09;5.93;;;2.80;;
26391;SDS011;14572;43.120;1.178;2023-05-14T01:15:40;5.88;;;3.00;;
26391;SDS011;14572;43.120;1.178;2023-05-14T01:18:09;4.18;;;2.80;;
26391;SDS011;14572;43.120;1.178;2023-05-14T01:20:37;5.30;;;2.90;;
26391;SDS011;14572;43.120;1.178;2023-05-14T01:23:06;5.90;;;2.67;;
26391;SDS011;14572;43.120;1.178;2023-05-14T01:25:33;3.58;;;2.63;;
26391;SDS011;14572;43.120;1.178;2023-05-14T01:28:02;5.50;;;2.58;;
26391;SDS011;14572;43.120;1.178;2023-05-14T01:30:34;5.95;;;2.60;;
26391;SDS011;14572;43.120;1.178;2023-05-14T01:33:04;4.90;;;2.95;;
26391;SDS011;14572;43.120;1.178;2023-05-14T01:35:32;5.65;;;2.83;;
26391;SDS011;14572;43.120;1.178;2023-05-14T01:38:00;5.97;;;2.53;;
26391;SDS011;14572;43.120;1.178;2023-05-14T01:40:29;3.90;;;2.42;;
26391;SDS011;14572;43.120;1.178;2023-05-14T01:42:58;6.00;;;2.53;;
26391;SDS011;14572;43.120;1.178;2023-05-14T01:45:26;4.30;;;2.45;;
26391;SDS011;14572;43.120;1.178;2023-05-14T01:47:53;4.00;;;2.35;;
26391;SDS011;14572;43.120;1.178;2023-05-14T01:50:20;3.50;;;2.40;;
26391;SDS011;14572;43.120;1.178;2023-05-14T01:52:48;3.08;;;2.33;;
26391;SDS011;14572;43.120;1.178;2023-05-14T01:55:17;3.75;;;2.47;;
26391;SDS011;14572;43.120;1.178;2023-05-14T01:57:46;3.97;;;2.50;;
26391;SDS011;14572;43.120;1.178;2023-05-14T02:00:13;4.25;;;2.22;;
26391;SDS011;14572;43.120;1.178;2023-05-14T02:02:41;3.83;;;2.88;;
26391;SDS011;14572;43.120;1.178;2023-05-14T02:05:08;4.18;;;2.28;;
26391;SDS011;14572;43.120;1.178;2023-05-14T02:07:36;2.88;;;2.33;;
26391;SDS011;14572;43.120;1.178;2023-05-14T02:10:03;5.22;;;2.70;;
26391;SDS011;14572;43.120;1.178;2023-05-14T02:12:31;4.85;;;2.47;;
26391;SDS011;14572;43.120;1.178;2023-05-14T02:15:00;4.60;;;2.28;;
26391;SDS011;14572;43.120;1.178;2023-05-14T02:17:28;3.97;;;2.13;;
26391;SDS011;14572;43.120;1.178;2023-05-14T02:19:55;4.68;;;2.30;;
26391;SDS011;14572;43.120;1.178;2023-05-14T02:22:22;4.57;;;2.60;;
26391;SDS011;14572;43.120;1.178;2023-05-14T02:24:50;5.85;;;2.33;;
26391;SDS011;14572;43.120;1.178;2023-05-14T02:27:17;3.78;;;2.50;;
26391;SDS011;14572;43.120;1.178;2023-05-14T02:29:45;2.95;;;2.50;;
26391;SDS011;14572;43.120;1.178;2023-05-14T02:32:14;6.43;;;3.00;;
26391;SDS011;14572;43.120;1.178;2023-05-14T02:34:41;3.58;;;2.67;;
26391;SDS011;14572;43.120;1.178;2023-05-14T02:37:08;6.65;;;2.70;;
26391;SDS011;14572;43.120;1.178;2023-05-14T02:39:35;5.00;;;2.40;;
26391;SDS011;14572;43.120;1.178;2023-05-14T02:42:03;3.97;;;2.65;;
26391;SDS011;14572;43.120;1.178;2023-05-14T02:44:30;5.15;;;2.67;;
26391;SDS011;14572;43.120;1.178;2023-05-14T02:46:57;4.47;;;2.90;;
26391;SDS011;14572;43.120;1.178;2023-05-14T02:49:26;3.35;;;2.60;;
26391;SDS011;14572;43.120;1.178;2023-05-14T02:51:54;4.65;;;2.88;;
26391;SDS011;14572;43.120;1.178;2023-05-14T02:54:21;3.17;;;2.88;;
26391;SDS011;14572;43.120;1.178;2023-05-14T02:56:48;8.38;;;2.83;;
26391;SDS011;14572;43.120;1.178;2023-05-14T02:59:15;5.45;;;2.75;;
26391;SDS011;14572;43.120;1.178;2023-05-14T03:01:42;9.02;;;3.10;;
26391;SDS011;14572;43.120;1.178;2023-05-14T03:04:09;3.22;;;2.85;;
26391;SDS011;14572;43.120;1.178;2023-05-14T03:06:38;5.72;;;2.80;;
26391;SDS011;14572;43.120;1.178;2023-05-14T03:09:05;3.53;;;2.42;;
26391;SDS011;14572;43.120;1.178;2023-05-14T03:11:32;4.05;;;3.10;;
26391;SDS011;14572;43.120;1.178;2023-05-14T03:14:00;4.07;;;2.70;;
26391;SDS011;14572;43.120;1.178;2023-05-14T03:16:27;6.53;;;2.95;;
26391;SDS011;14572;43.120;1.178;2023-05-14T03:18:54;3.20;;;2.50;;
26391;SDS011;14572;43.120;1.178;2023-05-14T03:21:21;4.10;;;2.40;;
26391;SDS011;14572;43.120;1.178;2023-05-14T03:23:50;4.35;;;2.47;;
26391;SDS011;14572;43.120;1.178;2023-05-14T03:26:18;2.80;;;2.42;;
26391;SDS011;14572;43.120;1.178;2023-05-14T03:28:46;2.40;;;2.20;;
26391;SDS011;14572;43.120;1.178;2023-05-14T03:31:13;3.65;;;2.90;;
26391;SDS011;14572;43.120;1.178;2023-05-14T03:33:40;5.70;;;2.78;;
26391;SDS011;14572;43.120;1.178;2023-05-14T03:36:07;6.50;;;2.90;;
26391;SDS011;14572;43.120;1.178;2023-05-14T03:38:34;5.20;;;2.55;;
26391;SDS011;14572;43.120;1.178;2023-05-14T03:41:03;2.63;;;2.33;;
26391;SDS011;14572;43.120;1.178;2023-05-14T03:43:30;3.22;;;2.53;;
26391;SDS011;14572;43.120;1.178;2023-05-14T03:45:57;3.63;;;2.60;;
26391;SDS011;14572;43.120;1.178;2023-05-14T03:48:25;3.35;;;2.70;;
26391;SDS011;14572;43.120;1.178;2023-05-14T03:50:52;3.08;;;2.60;;
26391;SDS011;14572;43.120;1.178;2023-05-14T03:53:19;3.92;;;2.75;;
26391;SDS011;14572;43.120;1.178;2023-05-14T03:55:47;5.18;;;3.33;;
26391;SDS011;14572;43.120;1.178;2023-05-14T03:58:15;5.28;;;3.40;;
26391;SDS011;14572;43.120;1.178;2023-05-14T04:00:42;4.68;;;3.35;;
26391;SDS011;14572;43.120;1.178;2023-05-14T04:03:10;4.85;;;3.58;;
26391;SDS011;14572;43.120;1.178;2023-05-14T04:05:37;7.15;;;3.85;;
26391;SDS011;14572;43.120;1.178;2023-05-14T04:08:04;6.28;;;4.10;;
26391;SDS011;14572;43.120;1.178;2023-05-14T04:10:32;7.50;;;3.78;;
26391;SDS011;14572;43.120;1.178;2023-05-14T04:12:59;5.68;;;3.95;;
26391;SDS011;14572;43.120;1.178;2023-05-14T04:15:27;6.65;;;4.45;;
26391;SDS011;14572;43.120;1.178;2023-05-14T04:17:56;5.55;;;4.07;;
26391;SDS011;14572;43.120;1.178;2023-05-14T04:20:24;6.60;;;4.30;;
26391;SDS011;14572;43.120;1.178;2023-05-14T04:22:51;4.95;;;4.00;;
26391;SDS011;14572;43.120;1.178;2023-05-14T04:25:19;7.38;;;4.35;;
26391;SDS011;14572;43.120;1.178;2023-05-14T04:27:46;7.68;;;4.72;;
26391;SDS011;14572;43.120;1.178;2023-05-14T04:30:14;6.10;;;4.32;;
26391;SDS011;14572;43.120;1.178;2023-05-14T04:32:43;5.75;;;4.00;;
26391;SDS011;14572;43.120;1.178;2023-05-14T04:35:10;5.68;;;4.28;;
26391;SDS011;14572;43.120;1.178;2023-05-14T04:37:37;5.53;;;3.67;;
26391;SDS011;14572;43.120;1.178;2023-05-14T04:40:06;5.30;;;3.70;;
26391;SDS011;14572;43.120;1.178;2023-05-14T04:42:35;6.57;;;4.00;;
26391;SDS011;14572;43.120;1.178;2023-05-14T04:45:03;6.78;;;3.65;;
26391;SDS011;14572;43.120;1.178;2023-05-14T04:47:30;7.30;;;3.67;;
26391;SDS011;14572;43.120;1.178;2023-05-14T04:49:59;5.20;;;3.65;;
26391;SDS011;14572;43.120;1.178;2023-05-14T04:52:26;5.65;;;3.95;;
26391;SDS011;14572;43.120;1.178;2023-05-14T04:54:53;5.10;;;3.58;;
26391;SDS011;14572;43.120;1.178;2023-05-14T04:57:21;5.70;;;4.10;;
26391;SDS011;14572;43.120;1.178;2023-05-14T04:59:48;8.80;;;4.15;;
26391;SDS011;14572;43.120;1.178;2023-05-14T05:02:15;5.35;;;4.25;;
26391;SDS011;14572;43.120;1.178;2023-05-14T05:04:42;7.70;;;4.07;;
26391;SDS011;14572;43.120;1.178;2023-05-14T05:07:11;6.07;;;4.63;;
26391;SDS011;14572;43.120;1.178;2023-05-14T05:09:38;6.78;;;3.97;;
26391;SDS011;14572;43.120;1.178;2023-05-14T05:12:06;5.30;;;4.10;;
26391;SDS011;14572;43.120;1.178;2023-05-14T05:14:33;5.57;;;4.15;;
26391;SDS011;14572;43.120;1.178;2023-05-14T05:17:00;10.07;;;4.32;;
26391;SDS011;14572;43.120;1.178;2023-05-14T05:19:28;8.00;;;4.45;;
26391;SDS011;14572;43.120;1.178;2023-05-14T05:21:55;9.15;;;4.45;;
26391;SDS011;14572;43.120;1.178;2023-05-14T05:24:24;7.60;;;3.95;;
26391;SDS011;14572;43.120;1.178;2023-05-14T05:26:51;4.60;;;3.63;;
26391;SDS011;14572;43.120;1.178;2023-05-14T05:29:19;6.78;;;3.53;;
26391;SDS011;14572;43.120;1.178;2023-05-14T05:31:48;6.88;;;4.05;;
26391;SDS011;14572;43.120;1.178;2023-05-14T05:34:15;5.28;;;3.47;;
26391;SDS011;14572;43.120;1.178;2023-05-14T05:36:43;8.63;;;4.28;;
26391;SDS011;14572;43.120;1.178;2023-05-14T05:39:10;5.00;;;3.53;;
26391;SDS011;14572;43.120;1.178;2023-05-14T05:41:39;4.00;;;3.38;;
26391;SDS011;14572;43.120;1.178;2023-05-14T05:44:06;7.40;;;3.17;;
26391;SDS011;14572;43.120;1.178;2023-05-14T05:46:34;3.45;;;2.90;;
26391;SDS011;14572;43.120;1.178;2023-05-14T05:49:01;3.55;;;2.58;;
26391;SDS011;14572;43.120;1.178;2023-05-14T05:51:28;4.43;;;2.90;;
26391;SDS011;14572;43.120;1.178;2023-05-14T05:53:57;3.97;;;2.75;;
26391;SDS011;14572;43.120;1.178;2023-05-14T05:56:26;4.97;;;2.70;;
26391;SDS011;14572;43.120;1.178;2023-05-14T05:58:55;5.75;;;3.28;;
26391;SDS011;14572;43.120;1.178;2023-05-14T06:01:22;4.85;;;3.38;;
26391;SDS011;14572;43.120;1.178;2023-05-14T06:03:49;6.47;;;3.13;;
26391;SDS011;14572;43.120;1.178;2023-05-14T06:06:16;5.30;;;3.42;;
26391;SDS011;14572;43.120;1.178;2023-05-14T06:08:44;6.88;;;3.20;;
26391;SDS011;14572;43.120;1.178;2023-05-14T06:11:11;3.20;;;2.90;;
26391;SDS011;14572;43.120;1.178;2023-05-14T06:13:38;4.65;;;3.38;;
26391;SDS011;14572;43.120;1.178;2023-05-14T06:16:07;3.92;;;3.30;;
26391;SDS011;14572;43.120;1.178;2023-05-14T06:18:35;4.90;;;3.53;;
26391;SDS011;14572;43.120;1.178;2023-05-14T06:21:02;4.32;;;3.28;;
26391;SDS011;14572;43.120;1.178;2023-05-14T06:23:29;4.22;;;3.20;;
26391;SDS011;14572;43.120;1.178;2023-05-14T06:25:57;4.43;;;3.35;;
26391;SDS011;14572;43.120;1.178;2023-05-14T06:28:24;4.65;;;3.22;;
26391;SDS011;14572;43.120;1.178;2023-05-14T06:30:51;4.25;;;3.20;;
26391;SDS011;14572;43.120;1.178;2023-05-14T06:33:20;8.65;;;3.13;;
26391;SDS011;14572;43.120;1.178;2023-05-14T06:35:54;4.22;;;2.97;;
26391;SDS011;14572;43.120;1.178;2023-05-14T06:38:22;3.38;;;3.08;;
26391;SDS011;14572;43.120;1.178;2023-05-14T06:40:49;3.58;;;2.80;;
26391;SDS011;14572;43.120;1.178;2023-05-14T06:43:17;3.53;;;2.92;;
26391;SDS011;14572;43.120;1.178;2023-05-14T06:45:47;6.10;;;3.15;;
26391;SDS011;14572;43.120;1.178;2023-05-14T06:48:14;6.63;;;3.83;;
26391;SDS011;14572;43.120;1.178;2023-05-14T06:50:44;7.78;;;4.53;;
26391;SDS011;14572;43.120;1.178;2023-05-14T06:53:11;4.95;;;3.80;;
26391;SDS011;14572;43.120;1.178;2023-05-14T06:55:38;3.90;;;3.00;;
26391;SDS011;14572;43.120;1.178;2023-05-14T06:58:06;7.80;;;3.15;;
26391;SDS011;14572;43.120;1.178;2023-05-14T07:00:33;5.20;;;3.58;;
26391;SDS011;14572;43.120;1.178;2023-05-14T07:03:00;7.05;;;3.53;;
26391;SDS011;14572;43.120;1.178;2023-05-14T07:05:28;5.18;;;3.17;;
26391;SDS011;14572;43.120;1.178;2023-05-14T07:07:57;5.65;;;3.17;;
26391;SDS011;14572;43.120;1.178;2023-05-14T07:10:24;3.90;;;3.20;;
26391;SDS011;14572;43.120;1.178;2023-05-14T07:12:51;5.00;;;3.50;;
26391;SDS011;14572;43.120;1.178;2023-05-14T07:15:18;5.20;;;3.53;;
26391;SDS011;14572;43.120;1.178;2023-05-14T07:17:45;6.47;;;3.35;;
26391;SDS011;14572;43.120;1.178;2023-05-14T07:20:13;5.28;;;3.33;;
26391;SDS011;14572;43.120;1.178;2023-05-14T07:22:40;7.05;;;3.50;;
26391;SDS011;14572;43.120;1.178;2023-05-14T07:25:09;3.67;;;3.38;;
26391;SDS011;14572;43.120;1.178;2023-05-14T07:27:36;5.40;;;3.58;;
26391;SDS011;14572;43.120;1.178;2023-05-14T07:30:03;4.82;;;2.97;;
26391;SDS011;14572;43.120;1.178;2023-05-14T07:32:31;4.30;;;3.58;;
26391;SDS011;14572;43.120;1.178;2023-05-14T07:34:58;5.57;;;3.30;;
26391;SDS011;14572;43.120;1.178;2023-05-14T07:37:25;7.53;;;4.10;;
26391;SDS011;14572;43.120;1.178;2023-05-14T07:39:52;4.78;;;4.20;;
26391;SDS011;14572;43.120;1.178;2023-05-14T07:42:21;5.03;;;3.45;;
26391;SDS011;14572;43.120;1.178;2023-05-14T07:44:48;4.32;;;3.40;;
26391;SDS011;14572;43.120;1.178;2023-05-14T07:47:16;4.65;;;3.50;;
26391;SDS011;14572;43.120;1.178;2023-05-14T07:49:43;5.10;;;3.33;;
26391;SDS011;14572;43.120;1.178;2023-05-14T07:52:10;5.20;;;3.95;;
26391;SDS011;14572;43.120;1.178;2023-05-14T07:54:37;4.80;;;3.92;;
26391;SDS011;14572;43.120;1.178;2023-05-14T07:57:05;4.75;;;3.92;;
26391;SDS011;14572;43.120;1.178;2023-05-14T07:59:33;5.88;;;3.75;;
26391;SDS011;14572;43.120;1.178;2023-05-14T08:02:00;7.30;;;3.80;;
26391;SDS011;14572;43.120;1.178;2023-05-14T08:04:27;8.80;;;3.90;;
26391;SDS011;14572;43.120;1.178;2023-05-14T08:06:55;8.65;;;4.22;;
26391;SDS011;14572;43.120;1.178;2023-05-14T08:09:22;4.80;;;3.78;;
26391;SDS011;14572;43.120;1.178;2023-05-14T08:11:50;3.60;;;3.05;;
26391;SDS011;14572;43.120;1.178;2023-05-14T08:14:17;5.18;;;3.28;;
26391;SDS011;14572;43.120;1.178;2023-05-14T08:16:47;4.05;;;3.35;;
26391;SDS011;14572;43.120;1.178;2023-05-14T08:19:14;4.65;;;3.10;;
26391;SDS011;14572;43.120;1.178;2023-05-14T08:21:42;4.38;;;3.40;;
26391;SDS011;14572;43.120;1.178;2023-05-14T08:24:09;5.05;;;2.78;;
26391;SDS011;14572;43.120;1.178;2023-05-14T08:26:36;5.93;;;2.97;;
26391;SDS011;14572;43.120;1.178;2023-05-14T08:29:04;5.43;;;3.47;;
26391;SDS011;14572;43.120;1.178;2023-05-14T08:31:31;5.13;;;3.17;;
26391;SDS011;14572;43.120;1.178;2023-05-14T08:33:59;3.75;;;3.28;;
26391;SDS011;14572;43.120;1.178;2023-05-14T08:36:26;8.13;;;3.13;;
26391;SDS011;14572;43.120;1.178;2023-05-14T08:38:53;7.10;;;3.00;;
26391;SDS011;14572;43.120;1.178;2023-05-14T08:41:20;4.93;;;3.25;;
26391;SDS011;14572;43.120;1.178;2023-05-14T08:43:50;5.88;;;3.00;;
26391;SDS011;14572;43.120;1.178;2023-05-14T08:46:23;4.18;;;3.15;;
26391;SDS011;14572;43.120;1.178;2023-05-14T08:48:51;4.15;;;2.75;;
26391;SDS011;14572;43.120;1.178;2023-05-14T08:51:25;3.67;;;2.22;;
26391;SDS011;14572;43.120;1.178;2023-05-14T08:53:53;3.92;;;2.53;;
26391;SDS011;14572;43.120;1.178;2023-05-14T08:56:21;4.40;;;2.22;;
26391;SDS011;14572;43.120;1.178;2023-05-14T08:58:48;3.30;;;2.80;;
26391;SDS011;14572;43.120;1.178;2023-05-14T09:01:16;3.55;;;2.47;;
26391;SDS011;14572;43.120;1.178;2023-05-14T09:03:44;2.85;;;2.13;;
26391;SDS011;14572;43.120;1.178;2023-05-14T09:06:12;2.53;;;2.22;;
26391;SDS011;14572;43.120;1.178;2023-05-14T09:08:41;2.53;;;2.33;;
26391;SDS011;14572;43.120;1.178;2023-05-14T09:11:08;2.95;;;1.83;;
26391;SDS011;14572;43.120;1.178;2023-05-14T09:13:36;3.15;;;2.47;;
26391;SDS011;14572;43.120;1.178;2023-05-14T09:16:04;2.97;;;2.28;;
26391;SDS011;14572;43.120;1.178;2023-05-14T09:18:32;2.35;;;2.03;;
26391;SDS011;14572;43.120;1.178;2023-05-14T09:21:01;3.95;;;1.80;;
26391;SDS011;14572;43.120;1.178;2023-05-14T09:23:30;2.78;;;2.00;;
26391;SDS011;14572;43.120;1.178;2023-05-14T09:25:59;8.05;;;2.10;;
26391;SDS011;14572;43.120;1.178;2023-05-14T09:28:30;4.13;;;2.17;;
26391;SDS011;14572;43.120;1.178;2023-05-14T09:30:57;3.75;;;1.90;;
26391;SDS011;14572;43.120;1.178;2023-05-14T09:33:25;2.53;;;1.83;;
26391;SDS011;14572;43.120;1.178;2023-05-14T09:35:54;4.55;;;2.35;;
26391;SDS011;14572;43.120;1.178;2023-05-14T09:38:26;2.83;;;1.75;;
26391;SDS011;14572;43.120;1.178;2023-05-14T09:40:54;2.72;;;1.73;;
26391;SDS011;14572;43.120;1.178;2023-05-14T09:43:23;3.67;;;2.13;;
26391;SDS011;14572;43.120;1.178;2023-05-14T09:45:50;2.22;;;1.88;;
26391;SDS011;14572;43.120;1.178;2023-05-14T09:48:17;2.15;;;1.95;;
26391;SDS011;14572;43.120;1.178;2023-05-14T09:50:44;4.43;;;1.92;;
26391;SDS011;14572;43.120;1.178;2023-05-14T09:53:12;2.80;;;2.08;;
26391;SDS011;14572;43.120;1.178;2023-05-14T09:55:39;2.58;;;2.00;;
26391;SDS011;14572;43.120;1.178;2023-05-14T09:58:07;2.40;;;1.88;;
26391;SDS011;14572;43.120;1.178;2023-05-14T10:00:35;2.65;;;1.90;;
26391;SDS011;14572;43.120;1.178;2023-05-14T10:03:03;3.58;;;2.10;;
26391;SDS011;14572;43.120;1.178;2023-05-14T10:05:32;3.17;;;1.63;;
26391;SDS011;14572;43.120;1.178;2023-05-14T10:08:02;2.08;;;1.70;;
26391;SDS011;14572;43.120;1.178;2023-05-14T10:10:31;2.63;;;1.70;;
26391;SDS011;14572;43.120;1.178;2023-05-14T10:13:00;1.95;;;1.70;;
26391;SDS011;14572;43.120;1.178;2023-05-14T10:15:32;3.45;;;2.40;;
26391;SDS011;14572;43.120;1.178;2023-05-14T10:18:02;2.53;;;1.90;;
26391;SDS011;14572;43.120;1.178;2023-05-14T10:20:33;4.18;;;2.50;;
26391;SDS011;14572;43.120;1.178;2023-05-14T10:23:00;4.20;;;2.05;;
26391;SDS011;14572;43.120;1.178;2023-05-14T10:25:27;2.15;;;1.75;;
26391;SDS011;14572;43.120;1.178;2023-05-14T10:27:55;5.18;;;2.35;;
26391;SDS011;14572;43.120;1.178;2023-05-14T10:30:22;4.25;;;2.20;;
26391;SDS011;14572;43.120;1.178;2023-05-14T10:38:26;3.03;;;2.17;;
26391;SDS011;14572;43.120;1.178;2023-05-14T10:41:03;3.85;;;1.92;;
26391;SDS011;14572;43.120;1.178;2023-05-14T10:43:38;2.75;;;1.67;;
26391;SDS011;14572;43.120;1.178;2023-05-14T10:46:06;3.20;;;2.03;;
26391;SDS011;14572;43.120;1.178;2023-05-14T10:48:40;4.03;;;1.70;;
26391;SDS011;14572;43.120;1.178;2023-05-14T10:51:08;3.80;;;1.63;;
26391;SDS011;14572;43.120;1.178;2023-05-14T10:53:38;3.70;;;1.75;;
26391;SDS011;14572;43.120;1.178;2023-05-14T10:56:07;3.30;;;2.08;;
26391;SDS011;14572;43.120;1.178;2023-05-14T10:58:35;3.28;;;2.10;;
26391;SDS011;14572;43.120;1.178;2023-05-14T11:01:04;2.30;;;1.80;;
26391;SDS011;14572;43.120;1.178;2023-05-14T11:03:37;3.47;;;1.70;;
26391;SDS011;14572;43.120;1.178;2023-05-14T11:06:07;2.78;;;2.20;;
26391;SDS011;14572;43.120;1.178;2023-05-14T11:08:35;4.45;;;2.50;;
26391;SDS011;14572;43.120;1.178;2023-05-14T11:11:02;6.63;;;2.78;;
26391;SDS011;14572;43.120;1.178;2023-05-14T11:13:30;4.03;;;2.80;;
26391;SDS011;14572;43.120;1.178;2023-05-14T11:15:58;4.32;;;2.85;;
26391;SDS011;14572;43.120;1.178;2023-05-14T11:18:26;3.83;;;2.55;;
26391;SDS011;14572;43.120;1.178;2023-05-14T11:20:58;4.93;;;2.97;;
26391;SDS011;14572;43.120;1.178;2023-05-14T11:23:26;4.57;;;3.20;;
26391;SDS011;14572;43.120;1.178;2023-05-14T11:25:54;3.30;;;2.97;;
26391;SDS011;14572;43.120;1.178;2023-05-14T11:28:22;4.25;;;2.58;;
26391;SDS011;14572;43.120;1.178;2023-05-14T11:30:49;4.65;;;2.45;;
26391;SDS011;14572;43.120;1.178;2023-05-14T11:33:18;4.95;;;3.35;;
26391;SDS011;14572;43.120;1.178;2023-05-14T11:35:45;4.50;;;2.55;;
26391;SDS011;14572;43.120;1.178;2023-05-14T11:38:14;3.58;;;2.67;;
26391;SDS011;14572;43.120;1.178;2023-05-14T11:40:42;3.70;;;2.55;;
26391;SDS011;14572;43.120;1.178;2023-05-14T11:43:13;3.33;;;2.30;;
26391;SDS011;14572;43.120;1.178;2023-05-14T11:45:40;6.82;;;2.95;;
26391;SDS011;14572;43.120;1.178;2023-05-14T11:48:11;4.15;;;2.92;;
26391;SDS011;14572;43.120;1.178;2023-05-14T11:50:43;4.57;;;2.50;;
26391;SDS011;14572;43.120;1.178;2023-05-14T11:53:16;4.68;;;2.67;;
26391;SDS011;14572;43.120;1.178;2023-05-14T11:55:44;6.25;;;2.65;;
26391;SDS011;14572;43.120;1.178;2023-05-14T11:58:12;4.30;;;2.45;;
26391;SDS011;14572;43.120;1.178;2023-05-14T12:00:40;4.85;;;2.80;;
26391;SDS011;14572;43.120;1.178;2023-05-14T12:03:08;8.95;;;3.08;;
26391;SDS011;14572;43.120;1.178;2023-05-14T12:05:36;4.32;;;3.28;;
26391;SDS011;14572;43.120;1.178;2023-05-14T12:10:47;5.28;;;3.70;;
26391;SDS011;14572;43.120;1.178;2023-05-14T12:13:14;4.30;;;2.92;;
26391;SDS011;14572;43.120;1.178;2023-05-14T12:15:45;3.60;;;3.03;;
26391;SDS011;14572;43.120;1.178;2023-05-14T12:18:13;4.22;;;3.40;;
26391;SDS011;14572;43.120;1.178;2023-05-14T12:20:45;5.80;;;3.70;;
26391;SDS011;14572;43.120;1.178;2023-05-14T12:23:12;4.95;;;3.55;;
26391;SDS011;14572;43.120;1.178;2023-05-14T12:25:41;4.75;;;3.92;;
26391;SDS011;14572;43.120;1.178;2023-05-14T12:28:15;5.10;;;4.22;;
26391;SDS011;14572;43.120;1.178;2023-05-14T12:30:43;5.28;;;3.92;;
26391;SDS011;14572;43.120;1.178;2023-05-14T12:33:11;5.75;;;4.40;;
26391;SDS011;14572;43.120;1.178;2023-05-14T12:35:38;5.78;;;4.53;;
26391;SDS011;14572;43.120;1.178;2023-05-14T12:38:05;6.15;;;4.60;;
26391;SDS011;14572;43.120;1.178;2023-05-14T12:40:32;5.28;;;4.05;;
26391;SDS011;14572;43.120;1.178;2023-05-14T12:43:02;6.47;;;4.30;;
26391;SDS011;14572;43.120;1.178;2023-05-14T12:45:29;4.85;;;4.28;;
26391;SDS011;14572;43.120;1.178;2023-05-14T12:47:57;6.88;;;4.70;;
26391;SDS011;14572;43.120;1.178;2023-05-14T12:50:24;6.15;;;4.47;;
26391;SDS011;14572;43.120;1.178;2023-05-14T12:52:51;4.90;;;3.90;;
26391;SDS011;14572;43.120;1.178;2023-05-14T12:55:18;6.63;;;4.45;;
26391;SDS011;14572;43.120;1.178;2023-05-14T12:57:45;4.65;;;4.13;;
26391;SDS011;14572;43.120;1.178;2023-05-14T13:00:14;5.03;;;4.07;;
26391;SDS011;14572;43.120;1.178;2023-05-14T13:02:42;4.35;;;3.50;;
26391;SDS011;14572;43.120;1.178;2023-05-14T13:05:09;13.15;;;4.40;;
26391;SDS011;14572;43.120;1.178;2023-05-14T13:07:36;6.97;;;4.40;;
26391;SDS011;14572;43.120;1.178;2023-05-14T13:10:03;6.93;;;4.30;;
26391;SDS011;14572;43.120;1.178;2023-05-14T13:12:31;5.18;;;4.15;;
26391;SDS011;14572;43.120;1.178;2023-05-14T13:14:58;8.40;;;4.45;;
26391;SDS011;14572;43.120;1.178;2023-05-14T13:17:27;7.20;;;4.63;;
26391;SDS011;14572;43.120;1.178;2023-05-14T13:19:54;9.82;;;4.65;;
26391;SDS011;14572;43.120;1.178;2023-05-14T13:22:21;7.05;;;4.47;;
26391;SDS011;14572;43.120;1.178;2023-05-14T13:24:48;5.70;;;4.78;;
26391;SDS011;14572;43.120;1.178;2023-05-14T13:27:15;6.53;;;5.13;;
26391;SDS011;14572;43.120;1.178;2023-05-14T13:29:42;5.97;;;5.38;;
26391;SDS011;14572;43.120;1.178;2023-05-14T13:32:09;5.75;;;5.07;;
26391;SDS011;14572;43.120;1.178;2023-05-14T13:34:40;9.23;;;5.15;;
26391;SDS011;14572;43.120;1.178;2023-05-14T13:37:08;9.02;;;4.95;;
26391;SDS011;14572;43.120;1.178;2023-05-14T13:39:35;5.80;;;4.55;;
26391;SDS011;14572;43.120;1.178;2023-05-14T13:42:02;10.40;;;4.95;;
26391;SDS011;14572;43.120;1.178;2023-05-14T13:44:30;7.25;;;4.35;;
26391;SDS011;14572;43.120;1.178;2023-05-14T13:46:57;5.68;;;4.28;;
26391;SDS011;14572;43.120;1.178;2023-05-14T13:49:24;5.93;;;4.20;;
26391;SDS011;14572;43.120;1.178;2023-05-14T13:51:53;4.88;;;4.30;;
26391;SDS011;14572;43.120;1.178;2023-05-14T13:54:20;5.45;;;4.68;;
26391;SDS011;14572;43.120;1.178;2023-05-14T13:56:47;8.35;;;4.68;;
26391;SDS011;14572;43.120;1.178;2023-05-14T13:59:14;6.35;;;5.10;;
26391;SDS011;14572;43.120;1.178;2023-05-14T14:01:44;6.55;;;4.72;;
26391;SDS011;14572;43.120;1.178;2023-05-14T14:04:13;6.20;;;5.18;;
26391;SDS011;14572;43.120;1.178;2023-05-14T14:06:41;7.53;;;4.88;;
26391;SDS011;14572;43.120;1.178;2023-05-14T14:09:10;5.78;;;5.03;;
26391;SDS011;14572;43.120;1.178;2023-05-14T14:11:38;9.25;;;5.22;;
26391;SDS011;14572;43.120;1.178;2023-05-14T14:14:05;9.60;;;5.50;;
26391;SDS011;14572;43.120;1.178;2023-05-14T14:16:32;15.32;;;5.97;;
26391;SDS011;14572;43.120;1.178;2023-05-14T14:18:59;18.83;;;5.60;;
26391;SDS011;14572;43.120;1.178;2023-05-14T14:21:26;10.57;;;5.10;;
26391;SDS011;14572;43.120;1.178;2023-05-14T14:23:53;9.90;;;5.55;;
26391;SDS011;14572;43.120;1.178;2023-05-14T14:26:22;9.57;;;5.78;;
26391;SDS011;14572;43.120;1.178;2023-05-14T14:28:49;8.32;;;4.78;;
26391;SDS011;14572;43.120;1.178;2023-05-14T14:31:16;6.90;;;5.28;;
26391;SDS011;14572;43.120;1.178;2023-05-14T14:33:43;6.93;;;5.18;;
26391;SDS011;14572;43.120;1.178;2023-05-14T14:36:10;5.65;;;4.95;;
26391;SDS011;14572;43.120;1.178;2023-05-14T14:38:37;5.18;;;4.50;;
26391;SDS011;14572;43.120;1.178;2023-05-14T14:41:05;3.80;;;3.20;;
26391;SDS011;14572;43.120;1.178;2023-05-14T14:43:36;3.13;;;2.67;;
26391;SDS011;14572;43.120;1.178;2023-05-14T14:46:04;3.38;;;2.45;;
26391;SDS011;14572;43.120;1.178;2023-05-14T14:48:33;3.42;;;2.35;;
26391;SDS011;14572;43.120;1.178;2023-05-14T14:51:02;2.63;;;2.42;;
26391;SDS011;14572;43.120;1.178;2023-05-14T14:53:29;2.92;;;2.50;;
26391;SDS011;14572;43.120;1.178;2023-05-14T14:55:57;7.93;;;2.30;;
26391;SDS011;14572;43.120;1.178;2023-05-14T14:58:24;4.70;;;2.22;;
26391;SDS011;14572;43.120;1.178;2023-05-14T15:00:53;2.45;;;2.20;;